Wuustwezel, Belgium
Current Conditions -  °F | °C
As of 9:25 AM on Friday 21 Nov 2014 (Local Time) from EHWO Reporting Station
Haze Haze  
Wind Chill: -1°   Ceiling: Unl
Heat Index:   Visibility: 2.5mi
Dew Point:   Wind: 9mph
Humidity: 93%   Direction: 70°ENE
Pressure: 30.18"   Gusts: NA
Location:  51.39°N, 4.6°E
Report Text: EHWO 210825Z AUTO 07008KT 4100 BR NCD 03/02 Q1022 GRN 08007KT 4500 BR NSC BECMG 8000 NSW
Loading
Personal Weather Stations






























Interactive Weather Map New forecast layout! Learn more

10-Day Weather Forecast

Advertisements
Track Severe Weather on mobile